메인 페이지
METAR-TAF:

METAR-TAF

공항 :

Williamsport, 펜실베이니아, 미국

위도: 41-14-30N, 경도: 076-55-15W, 고도: 161m

현재 날씨관측

예보는 29분 전, 08:54시(UTC)에 발표되었습니다.
북북서3kt
온도 15°C
습도 94%
기압 1009 hPa
시정: 16.1km
고도 200ft 상공 구름 조금

METAR: KIPT 040854Z AUTO 34003KT 10SM FEW002 15/14 A2981 RMK AO2 SLP093 T01500139 53013

시각: 05:23 (09:23 UTC)

예보

예보는 22분 전, 09:01시(UTC)에 발표되었습니다.
예보 대상 시간: 04일 09시부터 05일 06시까지 (UTC)
여러 방향의 바람 2kt
시정: 10km
고도 300ft 상공 구름 조금
시계 내 안개
04일 0930시부터 (UTC)
여러 방향의 바람 2kt
시정: 6.4km
고도 300ft 상공 구름 보통
박무, 시계 내 안개
일시적
04일 10시부터 04일 12시까지 (UTC)
kt
시정: 1.6km
고도 300ft 상공 구름 많음
박무
04일 1200시부터 (UTC)
남남서4kt
시정: 10km
고도 25000ft 상공 구름 조금
04일 2000시부터 (UTC)
남남서5kt
시정: 10km
고도 6000ft 상공 구름 많음
시계 내 소나기
05일 0300시부터 (UTC)
여러 방향의 바람 2kt
시정: 6.4km
고도 6000ft 상공 구름 많음
박무

TAF: KIPT 040901Z 0409/0506 VRB02KT P6SM VCFG FEW003 FM040930 VRB02KT 4SM BR VCFG SCT003 TEMPO 0410/0412 00000KT 1SM BR BKN003 FM041200 20004KT P6SM FEW250 FM042000 20005KT P6SM VCSH BKN060 FM050300 VRB02KT 4SM BR BKN060

4,000개 이상의 공항 관측 자료 및 예보 (METAR 및 TAF 보고).

지도상에서 검색 가능한 기상관측소가 노란 점과 빨간 점으로 표시되어 있습니다.

기상관측소 명을 보려면 표시 위로 마우스를 이동하세요.

날씨 관측과 예보를 보려면 클릭하세요.

지도 변경 : 확대하려면 엑스 표시가 있는 녹색 버튼, 축소하려면 빼기 표시가 있는 녹색 버튼, 다음 페이지의 지도를 보려면 녹색 화살표를 클릭하세요.


METAR-TAF: